Akeley, Minnesota
Current Conditions -  °F | °C
As of 4:55 AM on Friday 24 Oct 2014 (Local Time) from KY49 Reporting Station
Clear Clear  
Wind Chill: 11°   Ceiling: Unl
Heat Index: 11°   Visibility: 10mi
Dew Point:   Wind: 7mph
Humidity: 69%   Direction: 220°SW
Pressure: 29.83"   Gusts: NA
Location:  47°N, 94.73°W
Report Text: KY49 240955Z AUTO 22006KT 10SM CLR 11/05 A2983 RMK AO2 T01060052
Loading
Personal Weather Stations






























Interactive Weather Map
Tropical Storm Tracking
New forecast layout! Learn more

10-Day Weather Forecast

Advertisements
Track Severe Weather on mobile